sensor_id;sensor_type;location;lat;lon;timestamp;temperature;humidity
42835;DHT22;29335;50.526;30.458;2022-11-15T00:01:37;7.50;99.90
42835;DHT22;29335;50.526;30.458;2022-11-15T00:04:03;5.00;99.90
42835;DHT22;29335;50.526;30.458;2022-11-15T00:06:29;4.90;99.90
42835;DHT22;29335;50.526;30.458;2022-11-15T00:08:58;7.50;99.90
42835;DHT22;29335;50.526;30.458;2022-11-15T00:11:23;4.90;99.90
42835;DHT22;29335;50.526;30.458;2022-11-15T00:13:49;7.00;99.90
42835;DHT22;29335;50.526;30.458;2022-11-15T00:16:15;8.00;99.90
42835;DHT22;29335;50.526;30.458;2022-11-15T00:18:41;7.90;99.90
42835;DHT22;29335;50.526;30.458;2022-11-15T00:21:09;6.70;99.90
42835;DHT22;29335;50.526;30.458;2022-11-15T00:23:35;5.00;99.90
42835;DHT22;29335;50.526;30.458;2022-11-15T00:26:00;5.10;99.90
42835;DHT22;29335;50.526;30.458;2022-11-15T00:28:26;8.10;99.90
42835;DHT22;29335;50.526;30.458;2022-11-15T00:30:52;5.00;99.90
42835;DHT22;29335;50.526;30.458;2022-11-15T00:33:18;6.90;99.90
42835;DHT22;29335;50.526;30.458;2022-11-15T00:35:44;5.30;99.90
42835;DHT22;29335;50.526;30.458;2022-11-15T00:38:09;5.10;99.90
42835;DHT22;29335;50.526;30.458;2022-11-15T00:40:35;5.00;99.90
42835;DHT22;29335;50.526;30.458;2022-11-15T00:43:00;5.10;99.90
42835;DHT22;29335;50.526;30.458;2022-11-15T00:45:26;5.10;99.90
42835;DHT22;29335;50.526;30.458;2022-11-15T00:47:52;5.10;99.90
42835;DHT22;29335;50.526;30.458;2022-11-15T00:50:18;5.10;99.90
42835;DHT22;29335;50.526;30.458;2022-11-15T00:52:44;5.20;99.90
42835;DHT22;29335;50.526;30.458;2022-11-15T00:55:14;5.30;99.90
42835;DHT22;29335;50.526;30.458;2022-11-15T00:57:40;5.30;99.90
42835;DHT22;29335;50.526;30.458;2022-11-15T01:00:07;5.30;99.90
42835;DHT22;29335;50.526;30.458;2022-11-15T01:02:33;5.30;99.90
42835;DHT22;29335;50.526;30.458;2022-11-15T01:04:59;5.20;99.90
42835;DHT22;29335;50.526;30.458;2022-11-15T01:07:25;5.30;99.90
42835;DHT22;29335;50.526;30.458;2022-11-15T01:09:50;5.30;99.90
42835;DHT22;29335;50.526;30.458;2022-11-15T01:12:16;5.30;99.90
42835;DHT22;29335;50.526;30.458;2022-11-15T01:14:42;5.30;99.90
42835;DHT22;29335;50.526;30.458;2022-11-15T01:17:08;5.50;99.90
42835;DHT22;29335;50.526;30.458;2022-11-15T01:19:33;5.50;99.90
42835;DHT22;29335;50.526;30.458;2022-11-15T01:21:59;5.40;99.90
42835;DHT22;29335;50.526;30.458;2022-11-15T01:24:25;5.30;99.90
42835;DHT22;29335;50.526;30.458;2022-11-15T01:26:51;5.20;99.90
42835;DHT22;29335;50.526;30.458;2022-11-15T01:29:16;5.20;99.90
42835;DHT22;29335;50.526;30.458;2022-11-15T01:31:42;5.20;99.90
42835;DHT22;29335;50.526;30.458;2022-11-15T01:34:08;5.00;99.90
42835;DHT22;29335;50.526;30.458;2022-11-15T01:36:34;5.20;99.90
42835;DHT22;29335;50.526;30.458;2022-11-15T01:38:59;5.20;99.90
42835;DHT22;29335;50.526;30.458;2022-11-15T01:41:28;5.20;99.90
42835;DHT22;29335;50.526;30.458;2022-11-15T01:43:56;5.20;99.90
42835;DHT22;29335;50.526;30.458;2022-11-15T01:46:32;5.20;99.90
42835;DHT22;29335;50.526;30.458;2022-11-15T01:49:03;5.10;99.90
42835;DHT22;29335;50.526;30.458;2022-11-15T01:51:32;5.10;99.90
42835;DHT22;29335;50.526;30.458;2022-11-15T01:54:04;5.10;99.90
42835;DHT22;29335;50.526;30.458;2022-11-15T01:56:35;5.20;99.90
42835;DHT22;29335;50.526;30.458;2022-11-15T01:59:03;5.10;99.90
42835;DHT22;29335;50.526;30.458;2022-11-15T02:01:31;5.20;99.90
42835;DHT22;29335;50.526;30.458;2022-11-15T02:04:16;5.20;99.90
42835;DHT22;29335;50.526;30.458;2022-11-15T02:06:43;5.30;99.90
42835;DHT22;29335;50.526;30.458;2022-11-15T02:09:10;5.30;99.90
42835;DHT22;29335;50.526;30.458;2022-11-15T02:11:36;5.30;99.90
42835;DHT22;29335;50.526;30.458;2022-11-15T02:14:03;5.30;99.90
42835;DHT22;29335;50.526;30.458;2022-11-15T02:16:33;5.30;99.90
42835;DHT22;29335;50.526;30.458;2022-11-15T02:21:47;5.20;99.90
42835;DHT22;29335;50.526;30.458;2022-11-15T02:25:00;5.20;99.90
42835;DHT22;29335;50.526;30.458;2022-11-15T02:27:27;5.20;99.90
42835;DHT22;29335;50.526;30.458;2022-11-15T02:33:11;5.30;99.90
42835;DHT22;29335;50.526;30.458;2022-11-15T02:35:59;5.30;99.90
42835;DHT22;29335;50.526;30.458;2022-11-15T02:38:44;5.20;99.90
42835;DHT22;29335;50.526;30.458;2022-11-15T02:41:22;5.30;99.90
42835;DHT22;29335;50.526;30.458;2022-11-15T02:49:33;5.30;99.90
42835;DHT22;29335;50.526;30.458;2022-11-15T02:51:59;5.30;99.90
42835;DHT22;29335;50.526;30.458;2022-11-15T02:54:29;5.30;99.90
42835;DHT22;29335;50.526;30.458;2022-11-15T02:57:02;5.30;99.90
42835;DHT22;29335;50.526;30.458;2022-11-15T03:04:57;5.30;99.90
42835;DHT22;29335;50.526;30.458;2022-11-15T03:15:43;5.40;99.90
42835;DHT22;29335;50.526;30.458;2022-11-15T03:18:19;5.30;99.90
42835;DHT22;29335;50.526;30.458;2022-11-15T03:20:48;5.20;99.90
42835;DHT22;29335;50.526;30.458;2022-11-15T03:23:14;5.20;99.90
42835;DHT22;29335;50.526;30.458;2022-11-15T03:25:46;5.30;99.90
42835;DHT22;29335;50.526;30.458;2022-11-15T03:28:19;5.30;99.90
42835;DHT22;29335;50.526;30.458;2022-11-15T03:30:48;5.30;99.90
42835;DHT22;29335;50.526;30.458;2022-11-15T03:33:15;5.40;99.90
42835;DHT22;29335;50.526;30.458;2022-11-15T03:35:44;5.30;99.90
42835;DHT22;29335;50.526;30.458;2022-11-15T03:38:19;5.30;99.90
42835;DHT22;29335;50.526;30.458;2022-11-15T03:41:10;5.20;99.90
42835;DHT22;29335;50.526;30.458;2022-11-15T03:43:48;5.20;99.90
42835;DHT22;29335;50.526;30.458;2022-11-15T03:46:40;5.20;99.90
42835;DHT22;29335;50.526;30.458;2022-11-15T03:49:19;5.20;99.90
42835;DHT22;29335;50.526;30.458;2022-11-15T03:51:47;5.20;99.90
42835;DHT22;29335;50.526;30.458;2022-11-15T03:54:13;5.20;99.90
42835;DHT22;29335;50.526;30.458;2022-11-15T03:56:39;5.30;99.90
42835;DHT22;29335;50.526;30.458;2022-11-15T03:59:05;5.20;99.90
42835;DHT22;29335;50.526;30.458;2022-11-15T04:01:30;5.10;99.90
42835;DHT22;29335;50.526;30.458;2022-11-15T04:03:56;5.10;99.90
42835;DHT22;29335;50.526;30.458;2022-11-15T04:06:22;5.10;99.90
42835;DHT22;29335;50.526;30.458;2022-11-15T04:08:47;5.10;99.90
42835;DHT22;29335;50.526;30.458;2022-11-15T04:11:13;5.10;99.90
42835;DHT22;29335;50.526;30.458;2022-11-15T04:13:39;5.10;99.90
42835;DHT22;29335;50.526;30.458;2022-11-15T04:16:04;5.10;99.90
42835;DHT22;29335;50.526;30.458;2022-11-15T04:18:30;5.10;99.90
42835;DHT22;29335;50.526;30.458;2022-11-15T04:20:56;5.10;99.90
42835;DHT22;29335;50.526;30.458;2022-11-15T04:23:40;5.10;99.90
42835;DHT22;29335;50.526;30.458;2022-11-15T04:26:24;5.10;99.90
42835;DHT22;29335;50.526;30.458;2022-11-15T04:28:50;5.00;99.90
42835;DHT22;29335;50.526;30.458;2022-11-15T04:31:34;5.00;99.90
42835;DHT22;29335;50.526;30.458;2022-11-15T04:33:59;5.00;99.90
42835;DHT22;29335;50.526;30.458;2022-11-15T04:36:25;5.00;99.90
42835;DHT22;29335;50.526;30.458;2022-11-15T04:39:09;5.10;99.90
42835;DHT22;29335;50.526;30.458;2022-11-15T04:41:35;5.00;99.90
42835;DHT22;29335;50.526;30.458;2022-11-15T04:44:01;5.00;99.90
42835;DHT22;29335;50.526;30.458;2022-11-15T04:46:27;5.10;99.90
42835;DHT22;29335;50.526;30.458;2022-11-15T04:48:53;6.60;99.90
42835;DHT22;29335;50.526;30.458;2022-11-15T04:51:19;5.00;99.90
42835;DHT22;29335;50.526;30.458;2022-11-15T04:53:45;7.20;99.90
42835;DHT22;29335;50.526;30.458;2022-11-15T04:56:11;5.70;99.90
42835;DHT22;29335;50.526;30.458;2022-11-15T04:58:37;5.00;99.90
42835;DHT22;29335;50.526;30.458;2022-11-15T05:01:13;4.90;99.90
42835;DHT22;29335;50.526;30.458;2022-11-15T05:03:40;5.40;99.90
42835;DHT22;29335;50.526;30.458;2022-11-15T05:06:25;4.90;99.90
42835;DHT22;29335;50.526;30.458;2022-11-15T05:08:50;4.80;99.90
42835;DHT22;29335;50.526;30.458;2022-11-15T05:11:16;4.80;99.90
42835;DHT22;29335;50.526;30.458;2022-11-15T05:13:42;4.80;99.90
42835;DHT22;29335;50.526;30.458;2022-11-15T05:16:08;5.10;99.90
42835;DHT22;29335;50.526;30.458;2022-11-15T05:18:33;4.90;99.90
42835;DHT22;29335;50.526;30.458;2022-11-15T05:21:06;5.00;99.90
42835;DHT22;29335;50.526;30.458;2022-11-15T05:23:33;4.90;99.90
42835;DHT22;29335;50.526;30.458;2022-11-15T05:26:00;8.20;99.90
42835;DHT22;29335;50.526;30.458;2022-11-15T05:28:25;4.90;99.90
42835;DHT22;29335;50.526;30.458;2022-11-15T05:30:51;8.10;99.90
42835;DHT22;29335;50.526;30.458;2022-11-15T05:33:17;5.00;99.90
42835;DHT22;29335;50.526;30.458;2022-11-15T05:35:46;6.40;99.90
42835;DHT22;29335;50.526;30.458;2022-11-15T05:38:14;4.80;99.90
42835;DHT22;29335;50.526;30.458;2022-11-15T05:40:40;7.30;99.90
42835;DHT22;29335;50.526;30.458;2022-11-15T05:43:06;7.70;99.90
42835;DHT22;29335;50.526;30.458;2022-11-15T05:45:33;5.00;99.90
42835;DHT22;29335;50.526;30.458;2022-11-15T05:48:01;5.70;99.90
42835;DHT22;29335;50.526;30.458;2022-11-15T05:50:30;7.40;99.90
42835;DHT22;29335;50.526;30.458;2022-11-15T05:52:58;4.90;99.90
42835;DHT22;29335;50.526;30.458;2022-11-15T05:55:24;5.50;99.90
42835;DHT22;29335;50.526;30.458;2022-11-15T05:57:50;6.70;99.90
42835;DHT22;29335;50.526;30.458;2022-11-15T06:00:16;4.60;99.90
42835;DHT22;29335;50.526;30.458;2022-11-15T06:02:42;5.10;99.90
42835;DHT22;29335;50.526;30.458;2022-11-15T06:05:07;4.80;99.90
42835;DHT22;29335;50.526;30.458;2022-11-15T06:07:33;4.70;99.90
42835;DHT22;29335;50.526;30.458;2022-11-15T06:09:59;7.20;99.90
42835;DHT22;29335;50.526;30.458;2022-11-15T06:12:24;5.00;99.90
42835;DHT22;29335;50.526;30.458;2022-11-15T06:14:50;5.10;99.90
42835;DHT22;29335;50.526;30.458;2022-11-15T06:17:15;5.20;99.90
42835;DHT22;29335;50.526;30.458;2022-11-15T06:19:41;4.80;99.90
42835;DHT22;29335;50.526;30.458;2022-11-15T06:22:10;5.20;99.90
42835;DHT22;29335;50.526;30.458;2022-11-15T06:24:35;4.50;99.90
42835;DHT22;29335;50.526;30.458;2022-11-15T06:27:01;5.00;99.90
42835;DHT22;29335;50.526;30.458;2022-11-15T06:29:27;5.00;99.90
42835;DHT22;29335;50.526;30.458;2022-11-15T06:31:52;5.10;99.90
42835;DHT22;29335;50.526;30.458;2022-11-15T06:34:18;5.30;99.90
42835;DHT22;29335;50.526;30.458;2022-11-15T06:36:43;5.00;99.90
42835;DHT22;29335;50.526;30.458;2022-11-15T06:39:09;7.40;99.90
42835;DHT22;29335;50.526;30.458;2022-11-15T06:41:35;5.20;99.90
42835;DHT22;29335;50.526;30.458;2022-11-15T06:44:01;5.00;99.90
42835;DHT22;29335;50.526;30.458;2022-11-15T06:46:27;5.10;99.90
42835;DHT22;29335;50.526;30.458;2022-11-15T06:48:53;5.00;99.90
42835;DHT22;29335;50.526;30.458;2022-11-15T06:51:19;5.10;99.90
42835;DHT22;29335;50.526;30.458;2022-11-15T06:53:45;5.00;99.90
42835;DHT22;29335;50.526;30.458;2022-11-15T06:56:11;5.00;99.90
42835;DHT22;29335;50.526;30.458;2022-11-15T06:58:37;4.70;99.90
42835;DHT22;29335;50.526;30.458;2022-11-15T07:01:05;5.10;99.90
42835;DHT22;29335;50.526;30.458;2022-11-15T07:03:33;5.10;99.90
42835;DHT22;29335;50.526;30.458;2022-11-15T07:05:59;7.90;99.90
42835;DHT22;29335;50.526;30.458;2022-11-15T07:08:27;5.20;99.90
42835;DHT22;29335;50.526;30.458;2022-11-15T07:10:53;5.00;99.90
42835;DHT22;29335;50.526;30.458;2022-11-15T07:13:19;5.00;99.90
42835;DHT22;29335;50.526;30.458;2022-11-15T07:15:45;5.10;99.90
42835;DHT22;29335;50.526;30.458;2022-11-15T07:18:10;8.40;99.90
42835;DHT22;29335;50.526;30.458;2022-11-15T07:20:36;8.40;99.90
42835;DHT22;29335;50.526;30.458;2022-11-15T07:23:03;7.70;99.90
42835;DHT22;29335;50.526;30.458;2022-11-15T07:25:29;5.40;99.90
42835;DHT22;29335;50.526;30.458;2022-11-15T07:27:56;5.30;99.90
42835;DHT22;29335;50.526;30.458;2022-11-15T07:30:22;5.30;99.90
42835;DHT22;29335;50.526;30.458;2022-11-15T07:32:53;5.30;99.90
42835;DHT22;29335;50.526;30.458;2022-11-15T07:35:18;5.30;99.90
42835;DHT22;29335;50.526;30.458;2022-11-15T07:37:44;5.40;99.90
42835;DHT22;29335;50.526;30.458;2022-11-15T07:40:17;5.20;99.90
42835;DHT22;29335;50.526;30.458;2022-11-15T07:42:43;5.30;99.90
42835;DHT22;29335;50.526;30.458;2022-11-15T07:45:22;6.80;99.90
42835;DHT22;29335;50.526;30.458;2022-11-15T07:47:49;4.80;99.90
42835;DHT22;29335;50.526;30.458;2022-11-15T07:50:16;5.20;99.90
42835;DHT22;29335;50.526;30.458;2022-11-15T07:52:41;5.30;99.90
42835;DHT22;29335;50.526;30.458;2022-11-15T07:55:08;7.20;99.90
42835;DHT22;29335;50.526;30.458;2022-11-15T07:57:34;5.20;99.90
42835;DHT22;29335;50.526;30.458;2022-11-15T07:59:59;5.30;99.90
42835;DHT22;29335;50.526;30.458;2022-11-15T08:02:25;5.00;99.90
42835;DHT22;29335;50.526;30.458;2022-11-15T08:04:50;8.20;99.90
42835;DHT22;29335;50.526;30.458;2022-11-15T08:07:16;5.10;99.90
42835;DHT22;29335;50.526;30.458;2022-11-15T08:09:46;8.10;99.90
42835;DHT22;29335;50.526;30.458;2022-11-15T08:12:12;3.30;99.90
42835;DHT22;29335;50.526;30.458;2022-11-15T08:14:41;8.10;99.90
42835;DHT22;29335;50.526;30.458;2022-11-15T08:17:06;5.80;99.90
42835;DHT22;29335;50.526;30.458;2022-11-15T08:19:32;5.20;99.90
42835;DHT22;29335;50.526;30.458;2022-11-15T08:21:57;5.00;99.90
42835;DHT22;29335;50.526;30.458;2022-11-15T08:24:23;6.80;99.90
42835;DHT22;29335;50.526;30.458;2022-11-15T08:26:49;5.30;99.90
42835;DHT22;29335;50.526;30.458;2022-11-15T08:29:14;7.40;99.90
42835;DHT22;29335;50.526;30.458;2022-11-15T08:31:40;5.20;99.90
42835;DHT22;29335;50.526;30.458;2022-11-15T08:34:06;5.00;99.90
42835;DHT22;29335;50.526;30.458;2022-11-15T08:36:32;5.00;99.90
42835;DHT22;29335;50.526;30.458;2022-11-15T08:38:58;2.20;99.90
42835;DHT22;29335;50.526;30.458;2022-11-15T08:41:32;4.40;99.90
42835;DHT22;29335;50.526;30.458;2022-11-15T08:43:58;5.10;99.90
42835;DHT22;29335;50.526;30.458;2022-11-15T08:46:24;6.80;99.90
42835;DHT22;29335;50.526;30.458;2022-11-15T08:48:50;6.90;99.90
42835;DHT22;29335;50.526;30.458;2022-11-15T08:51:16;7.60;99.90
42835;DHT22;29335;50.526;30.458;2022-11-15T08:53:42;4.90;99.90
42835;DHT22;29335;50.526;30.458;2022-11-15T08:56:12;5.00;99.90
42835;DHT22;29335;50.526;30.458;2022-11-15T08:58:38;5.10;99.90
42835;DHT22;29335;50.526;30.458;2022-11-15T09:01:04;5.00;99.90
42835;DHT22;29335;50.526;30.458;2022-11-15T09:03:30;7.30;99.90
42835;DHT22;29335;50.526;30.458;2022-11-15T09:05:57;4.80;99.90
42835;DHT22;29335;50.526;30.458;2022-11-15T09:08:24;4.80;99.90
42835;DHT22;29335;50.526;30.458;2022-11-15T09:10:50;7.40;99.90
42835;DHT22;29335;50.526;30.458;2022-11-15T09:13:16;7.40;99.90
42835;DHT22;29335;50.526;30.458;2022-11-15T09:15:42;4.80;99.90
42835;DHT22;29335;50.526;30.458;2022-11-15T09:18:07;7.60;99.90
42835;DHT22;29335;50.526;30.458;2022-11-15T09:20:33;4.80;99.90
42835;DHT22;29335;50.526;30.458;2022-11-15T09:23:03;5.00;99.90
42835;DHT22;29335;50.526;30.458;2022-11-15T09:25:30;4.70;99.90
42835;DHT22;29335;50.526;30.458;2022-11-15T09:27:56;7.70;99.90
42835;DHT22;29335;50.526;30.458;2022-11-15T09:30:23;7.60;99.90
42835;DHT22;29335;50.526;30.458;2022-11-15T09:32:51;5.00;99.90
42835;DHT22;29335;50.526;30.458;2022-11-15T09:35:17;8.50;99.90
42835;DHT22;29335;50.526;30.458;2022-11-15T09:37:43;6.50;99.90
42835;DHT22;29335;50.526;30.458;2022-11-15T09:40:11;8.40;99.90
42835;DHT22;29335;50.526;30.458;2022-11-15T09:51:03;5.40;99.90
42835;DHT22;29335;50.526;30.458;2022-11-15T09:53:34;5.50;99.90
42835;DHT22;29335;50.526;30.458;2022-11-15T09:56:03;7.50;99.90
42835;DHT22;29335;50.526;30.458;2022-11-15T10:00:55;8.10;99.90
42835;DHT22;29335;50.526;30.458;2022-11-15T10:03:27;7.80;99.90
42835;DHT22;29335;50.526;30.458;2022-11-15T13:18:35;5.70;99.90
42835;DHT22;29335;50.526;30.458;2022-11-15T13:21:03;6.70;99.90
42835;DHT22;29335;50.526;30.458;2022-11-15T13:23:54;7.20;99.90
42835;DHT22;29335;50.526;30.458;2022-11-15T13:26:19;9.40;99.90
42835;DHT22;29335;50.526;30.458;2022-11-15T13:28:48;8.20;99.90
42835;DHT22;29335;50.526;30.458;2022-11-15T13:31:26;6.80;99.90
42835;DHT22;29335;50.526;30.458;2022-11-15T13:33:53;6.80;99.90
42835;DHT22;29335;50.526;30.458;2022-11-15T13:36:26;6.80;99.90
42835;DHT22;29335;50.526;30.458;2022-11-15T13:38:59;9.30;99.90
42835;DHT22;29335;50.526;30.458;2022-11-15T13:41:35;6.80;99.90
42835;DHT22;29335;50.526;30.458;2022-11-15T13:44:03;6.90;99.90
42835;DHT22;29335;50.526;30.458;2022-11-15T13:46:31;6.80;99.90
42835;DHT22;29335;50.526;30.458;2022-11-15T13:49:08;6.80;99.90
42835;DHT22;29335;50.526;30.458;2022-11-15T13:56:49;6.90;99.90
42835;DHT22;29335;50.526;30.458;2022-11-15T13:59:27;6.90;99.90
42835;DHT22;29335;50.526;30.458;2022-11-15T14:01:55;7.00;99.90
42835;DHT22;29335;50.526;30.458;2022-11-15T14:04:23;7.00;99.90
42835;DHT22;29335;50.526;30.458;2022-11-15T14:06:53;6.80;99.90
42835;DHT22;29335;50.526;30.458;2022-11-15T14:11:55;6.90;99.90
42835;DHT22;29335;50.526;30.458;2022-11-15T14:14:23;6.80;99.90
42835;DHT22;29335;50.526;30.458;2022-11-15T14:16:55;6.80;99.90
42835;DHT22;29335;50.526;30.458;2022-11-15T14:24:37;6.90;99.90
42835;DHT22;29335;50.526;30.458;2022-11-15T14:27:20;6.80;99.90
42835;DHT22;29335;50.526;30.458;2022-11-15T14:29:47;6.90;99.90
42835;DHT22;29335;50.526;30.458;2022-11-15T14:34:38;6.80;99.90
42835;DHT22;29335;50.526;30.458;2022-11-15T14:37:04;8.50;99.90
42835;DHT22;29335;50.526;30.458;2022-11-15T14:43:12;6.60;99.90
42835;DHT22;29335;50.526;30.458;2022-11-15T14:45:41;6.70;99.90
42835;DHT22;29335;50.526;30.458;2022-11-15T14:48:07;8.80;99.90
42835;DHT22;29335;50.526;30.458;2022-11-15T14:50:34;6.60;99.90
42835;DHT22;29335;50.526;30.458;2022-11-15T14:53:00;9.40;99.90
42835;DHT22;29335;50.526;30.458;2022-11-15T14:55:34;10.10;99.90
42835;DHT22;29335;50.526;30.458;2022-11-15T14:58:04;8.80;99.90
42835;DHT22;29335;50.526;30.458;2022-11-15T15:00:34;9.40;99.90
42835;DHT22;29335;50.526;30.458;2022-11-15T15:03:00;6.90;99.90
42835;DHT22;29335;50.526;30.458;2022-11-15T15:05:37;6.90;99.90
42835;DHT22;29335;50.526;30.458;2022-11-15T15:08:04;7.00;99.90
42835;DHT22;29335;50.526;30.458;2022-11-15T15:10:36;7.00;99.90
42835;DHT22;29335;50.526;30.458;2022-11-15T15:13:03;9.80;99.90
42835;DHT22;29335;50.526;30.458;2022-11-15T15:15:34;9.30;99.90
42835;DHT22;29335;50.526;30.458;2022-11-15T15:18:01;7.10;99.90
42835;DHT22;29335;50.526;30.458;2022-11-15T15:20:27;9.50;99.90
42835;DHT22;29335;50.526;30.458;2022-11-15T15:22:54;8.90;99.90
42835;DHT22;29335;50.526;30.458;2022-11-15T15:25:21;6.70;99.90
42835;DHT22;29335;50.526;30.458;2022-11-15T15:27:47;6.70;99.90
42835;DHT22;29335;50.526;30.458;2022-11-15T15:30:13;7.10;99.90
42835;DHT22;29335;50.526;30.458;2022-11-15T15:32:38;9.20;99.90
42835;DHT22;29335;50.526;30.458;2022-11-15T15:35:04;4.20;99.90
42835;DHT22;29335;50.526;30.458;2022-11-15T15:37:31;7.10;99.90
42835;DHT22;29335;50.526;30.458;2022-11-15T15:39:58;9.60;99.90
42835;DHT22;29335;50.526;30.458;2022-11-15T15:42:24;9.40;99.90
42835;DHT22;29335;50.526;30.458;2022-11-15T15:44:52;8.80;99.90
42835;DHT22;29335;50.526;30.458;2022-11-15T15:47:20;9.60;99.90
42835;DHT22;29335;50.526;30.458;2022-11-15T15:49:46;9.90;99.90
42835;DHT22;29335;50.526;30.458;2022-11-15T15:52:12;9.50;99.90
42835;DHT22;29335;50.526;30.458;2022-11-15T15:54:38;8.90;99.90
42835;DHT22;29335;50.526;30.458;2022-11-15T15:57:05;7.40;99.90
42835;DHT22;29335;50.526;30.458;2022-11-15T15:59:31;8.90;99.90
42835;DHT22;29335;50.526;30.458;2022-11-15T16:01:57;10.00;99.90
42835;DHT22;29335;50.526;30.458;2022-11-15T16:04:23;7.00;99.90
42835;DHT22;29335;50.526;30.458;2022-11-15T16:06:48;9.10;99.90
42835;DHT22;29335;50.526;30.458;2022-11-15T16:09:18;7.30;99.90
42835;DHT22;29335;50.526;30.458;2022-11-15T16:12:04;7.20;99.90
42835;DHT22;29335;50.526;30.458;2022-11-15T16:14:29;7.30;99.90
42835;DHT22;29335;50.526;30.458;2022-11-15T16:16:55;7.10;99.90
42835;DHT22;29335;50.526;30.458;2022-11-15T16:19:20;7.30;99.90
42835;DHT22;29335;50.526;30.458;2022-11-15T16:21:46;9.60;99.90
42835;DHT22;29335;50.526;30.458;2022-11-15T16:24:12;7.20;99.90
42835;DHT22;29335;50.526;30.458;2022-11-15T16:26:37;7.20;99.90
42835;DHT22;29335;50.526;30.458;2022-11-15T16:29:03;10.50;99.90
42835;DHT22;29335;50.526;30.458;2022-11-15T16:31:29;7.30;99.90
42835;DHT22;29335;50.526;30.458;2022-11-15T16:33:54;7.30;99.90
42835;DHT22;29335;50.526;30.458;2022-11-15T16:36:23;9.20;99.90
42835;DHT22;29335;50.526;30.458;2022-11-15T16:38:49;9.20;99.90
42835;DHT22;29335;50.526;30.458;2022-11-15T16:41:16;7.40;99.90
42835;DHT22;29335;50.526;30.458;2022-11-15T16:43:44;9.90;99.90
42835;DHT22;29335;50.526;30.458;2022-11-15T16:46:17;7.40;99.90
42835;DHT22;29335;50.526;30.458;2022-11-15T16:48:44;10.10;99.90
42835;DHT22;29335;50.526;30.458;2022-11-15T16:51:10;8.50;99.90
42835;DHT22;29335;50.526;30.458;2022-11-15T16:53:35;9.90;99.90
42835;DHT22;29335;50.526;30.458;2022-11-15T16:56:01;10.40;99.90
42835;DHT22;29335;50.526;30.458;2022-11-15T16:58:27;7.40;99.90
42835;DHT22;29335;50.526;30.458;2022-11-15T17:00:54;7.50;99.90
42835;DHT22;29335;50.526;30.458;2022-11-15T17:03:21;9.50;99.90
42835;DHT22;29335;50.526;30.458;2022-11-15T17:05:48;9.20;99.90
42835;DHT22;29335;50.526;30.458;2022-11-15T17:08:17;7.50;99.90
42835;DHT22;29335;50.526;30.458;2022-11-15T17:10:45;7.40;99.90
42835;DHT22;29335;50.526;30.458;2022-11-15T17:13:14;7.50;99.90
42835;DHT22;29335;50.526;30.458;2022-11-15T17:15:39;7.40;99.90
42835;DHT22;29335;50.526;30.458;2022-11-15T17:18:05;7.40;99.90
42835;DHT22;29335;50.526;30.458;2022-11-15T17:20:31;9.80;99.90
42835;DHT22;29335;50.526;30.458;2022-11-15T17:22:56;7.40;99.90
42835;DHT22;29335;50.526;30.458;2022-11-15T17:25:22;7.40;99.90
42835;DHT22;29335;50.526;30.458;2022-11-15T17:27:48;7.50;99.90
42835;DHT22;29335;50.526;30.458;2022-11-15T17:30:14;7.20;99.90
42835;DHT22;29335;50.526;30.458;2022-11-15T17:32:41;7.50;99.90
42835;DHT22;29335;50.526;30.458;2022-11-15T17:35:08;7.50;99.90
42835;DHT22;29335;50.526;30.458;2022-11-15T17:37:35;7.60;99.90
42835;DHT22;29335;50.526;30.458;2022-11-15T17:40:00;9.80;99.90
42835;DHT22;29335;50.526;30.458;2022-11-15T17:42:26;10.60;99.90
42835;DHT22;29335;50.526;30.458;2022-11-15T17:44:52;7.60;99.90
42835;DHT22;29335;50.526;30.458;2022-11-15T17:47:18;7.50;99.90
42835;DHT22;29335;50.526;30.458;2022-11-15T17:49:43;7.50;99.90
42835;DHT22;29335;50.526;30.458;2022-11-15T17:52:09;10.00;99.90
42835;DHT22;29335;50.526;30.458;2022-11-15T17:54:34;10.80;99.90
42835;DHT22;29335;50.526;30.458;2022-11-15T17:57:00;10.90;99.90
42835;DHT22;29335;50.526;30.458;2022-11-15T17:59:25;11.00;99.90
42835;DHT22;29335;50.526;30.458;2022-11-15T18:01:51;10.30;99.90
42835;DHT22;29335;50.526;30.458;2022-11-15T18:04:18;10.40;99.90
42835;DHT22;29335;50.526;30.458;2022-11-15T18:06:44;10.20;99.90
42835;DHT22;29335;50.526;30.458;2022-11-15T18:09:10;7.20;99.90
42835;DHT22;29335;50.526;30.458;2022-11-15T18:11:39;7.60;99.90
42835;DHT22;29335;50.526;30.458;2022-11-15T18:14:13;10.60;99.90
42835;DHT22;29335;50.526;30.458;2022-11-15T18:16:38;7.50;99.90
42835;DHT22;29335;50.526;30.458;2022-11-15T18:19:05;7.50;99.90
42835;DHT22;29335;50.526;30.458;2022-11-15T18:21:36;7.60;99.90
42835;DHT22;29335;50.526;30.458;2022-11-15T18:24:26;9.70;99.90
42835;DHT22;29335;50.526;30.458;2022-11-15T18:26:52;7.60;99.90
42835;DHT22;29335;50.526;30.458;2022-11-15T18:29:18;9.40;99.90
42835;DHT22;29335;50.526;30.458;2022-11-15T18:31:44;4.80;99.90
42835;DHT22;29335;50.526;30.458;2022-11-15T18:34:10;7.90;99.90
42835;DHT22;29335;50.526;30.458;2022-11-15T18:36:35;7.70;99.90
42835;DHT22;29335;50.526;30.458;2022-11-15T18:39:03;8.90;99.90
42835;DHT22;29335;50.526;30.458;2022-11-15T18:41:30;9.30;99.90
42835;DHT22;29335;50.526;30.458;2022-11-15T18:44:01;7.60;99.90
42835;DHT22;29335;50.526;30.458;2022-11-15T18:46:29;7.50;99.90
42835;DHT22;29335;50.526;30.458;2022-11-15T18:48:56;8.70;99.90
42835;DHT22;29335;50.526;30.458;2022-11-15T18:51:24;7.60;99.90
42835;DHT22;29335;50.526;30.458;2022-11-15T18:53:58;7.20;99.90
42835;DHT22;29335;50.526;30.458;2022-11-15T18:56:25;7.50;99.90
42835;DHT22;29335;50.526;30.458;2022-11-15T18:58:56;7.60;99.90
42835;DHT22;29335;50.526;30.458;2022-11-15T19:01:24;7.60;99.90
42835;DHT22;29335;50.526;30.458;2022-11-15T19:03:52;7.70;99.90
42835;DHT22;29335;50.526;30.458;2022-11-15T19:06:23;7.30;99.90
42835;DHT22;29335;50.526;30.458;2022-11-15T19:08:51;7.60;99.90
42835;DHT22;29335;50.526;30.458;2022-11-15T19:11:18;6.70;99.90
42835;DHT22;29335;50.526;30.458;2022-11-15T19:13:46;7.60;99.90
42835;DHT22;29335;50.526;30.458;2022-11-15T19:16:15;7.60;99.90
42835;DHT22;29335;50.526;30.458;2022-11-15T19:18:41;7.80;99.90
42835;DHT22;29335;50.526;30.458;2022-11-15T19:21:09;8.60;99.90
42835;DHT22;29335;50.526;30.458;2022-11-15T19:23:37;9.80;99.90
42835;DHT22;29335;50.526;30.458;2022-11-15T19:26:04;7.70;99.90
42835;DHT22;29335;50.526;30.458;2022-11-15T19:28:31;10.40;99.90
42835;DHT22;29335;50.526;30.458;2022-11-15T19:31:05;10.50;99.90
42835;DHT22;29335;50.526;30.458;2022-11-15T19:33:35;7.60;99.90
42835;DHT22;29335;50.526;30.458;2022-11-15T19:36:03;7.60;99.90
42835;DHT22;29335;50.526;30.458;2022-11-15T19:38:31;7.70;99.90
42835;DHT22;29335;50.526;30.458;2022-11-15T19:41:01;7.60;99.90
42835;DHT22;29335;50.526;30.458;2022-11-15T19:43:30;10.20;99.90